sensor_id;sensor_type;location;lat;lon;timestamp;P1;durP1;ratioP1;P2;durP2;ratioP2
74749;SDS011;63269;53.330;-6.288;2023-04-23T00:01:26;4.63;;;3.55;;
74749;SDS011;63269;53.330;-6.288;2023-04-23T00:03:53;4.40;;;3.08;;
74749;SDS011;63269;53.330;-6.288;2023-04-23T00:06:21;4.25;;;2.95;;
74749;SDS011;63269;53.330;-6.288;2023-04-23T00:08:47;4.72;;;3.60;;
74749;SDS011;63269;53.330;-6.288;2023-04-23T00:11:14;4.28;;;3.42;;
74749;SDS011;63269;53.330;-6.288;2023-04-23T00:13:40;4.00;;;3.33;;
74749;SDS011;63269;53.330;-6.288;2023-04-23T00:16:06;4.00;;;3.60;;
74749;SDS011;63269;53.330;-6.288;2023-04-23T00:18:32;4.95;;;3.63;;
74749;SDS011;63269;53.330;-6.288;2023-04-23T00:20:57;5.25;;;3.67;;
74749;SDS011;63269;53.330;-6.288;2023-04-23T00:23:23;5.30;;;3.50;;
74749;SDS011;63269;53.330;-6.288;2023-04-23T00:25:49;4.82;;;3.63;;
74749;SDS011;63269;53.330;-6.288;2023-04-23T00:28:14;5.13;;;3.80;;
74749;SDS011;63269;53.330;-6.288;2023-04-23T00:30:40;4.80;;;3.63;;
74749;SDS011;63269;53.330;-6.288;2023-04-23T00:33:05;3.90;;;3.53;;
74749;SDS011;63269;53.330;-6.288;2023-04-23T00:35:31;5.50;;;3.40;;
74749;SDS011;63269;53.330;-6.288;2023-04-23T00:37:56;4.47;;;3.50;;
74749;SDS011;63269;53.330;-6.288;2023-04-23T00:40:22;7.03;;;3.72;;
74749;SDS011;63269;53.330;-6.288;2023-04-23T00:42:47;3.72;;;3.17;;
74749;SDS011;63269;53.330;-6.288;2023-04-23T00:45:16;5.10;;;3.90;;
74749;SDS011;63269;53.330;-6.288;2023-04-23T00:47:42;4.68;;;3.60;;
74749;SDS011;63269;53.330;-6.288;2023-04-23T00:50:07;5.78;;;4.20;;
74749;SDS011;63269;53.330;-6.288;2023-04-23T00:52:33;6.65;;;4.20;;
74749;SDS011;63269;53.330;-6.288;2023-04-23T00:55:00;5.80;;;4.03;;
74749;SDS011;63269;53.330;-6.288;2023-04-23T00:57:25;5.10;;;3.92;;
74749;SDS011;63269;53.330;-6.288;2023-04-23T00:59:52;5.10;;;3.58;;
74749;SDS011;63269;53.330;-6.288;2023-04-23T01:02:19;4.95;;;3.50;;
74749;SDS011;63269;53.330;-6.288;2023-04-23T01:04:45;4.45;;;3.08;;
74749;SDS011;63269;53.330;-6.288;2023-04-23T01:07:15;5.82;;;3.63;;
74749;SDS011;63269;53.330;-6.288;2023-04-23T01:09:40;5.07;;;3.60;;
74749;SDS011;63269;53.330;-6.288;2023-04-23T01:12:06;4.93;;;3.20;;
74749;SDS011;63269;53.330;-6.288;2023-04-23T01:14:33;4.15;;;3.15;;
74749;SDS011;63269;53.330;-6.288;2023-04-23T01:17:01;5.00;;;3.22;;
74749;SDS011;63269;53.330;-6.288;2023-04-23T01:19:26;4.13;;;3.17;;
74749;SDS011;63269;53.330;-6.288;2023-04-23T01:21:52;4.63;;;3.25;;
74749;SDS011;63269;53.330;-6.288;2023-04-23T01:24:18;5.28;;;3.78;;
74749;SDS011;63269;53.330;-6.288;2023-04-23T01:26:44;5.32;;;3.72;;
74749;SDS011;63269;53.330;-6.288;2023-04-23T01:29:09;7.00;;;3.83;;
74749;SDS011;63269;53.330;-6.288;2023-04-23T01:31:35;5.47;;;3.70;;
74749;SDS011;63269;53.330;-6.288;2023-04-23T01:34:01;5.25;;;3.72;;
74749;SDS011;63269;53.330;-6.288;2023-04-23T01:36:27;5.63;;;3.63;;
74749;SDS011;63269;53.330;-6.288;2023-04-23T01:38:53;7.28;;;5.03;;
74749;SDS011;63269;53.330;-6.288;2023-04-23T01:41:18;4.82;;;4.13;;
74749;SDS011;63269;53.330;-6.288;2023-04-23T01:43:44;5.75;;;4.05;;
74749;SDS011;63269;53.330;-6.288;2023-04-23T01:46:10;6.00;;;4.60;;
74749;SDS011;63269;53.330;-6.288;2023-04-23T01:48:36;5.75;;;4.50;;
74749;SDS011;63269;53.330;-6.288;2023-04-23T01:51:02;6.55;;;4.10;;
74749;SDS011;63269;53.330;-6.288;2023-04-23T01:53:27;5.70;;;4.10;;
74749;SDS011;63269;53.330;-6.288;2023-04-23T01:55:53;6.43;;;4.43;;
74749;SDS011;63269;53.330;-6.288;2023-04-23T01:58:19;5.28;;;3.95;;
74749;SDS011;63269;53.330;-6.288;2023-04-23T02:00:47;6.22;;;4.03;;
74749;SDS011;63269;53.330;-6.288;2023-04-23T02:03:12;7.25;;;4.05;;
74749;SDS011;63269;53.330;-6.288;2023-04-23T02:05:38;4.68;;;3.60;;
74749;SDS011;63269;53.330;-6.288;2023-04-23T02:08:05;5.30;;;3.72;;
74749;SDS011;63269;53.330;-6.288;2023-04-23T02:10:31;5.95;;;3.40;;
74749;SDS011;63269;53.330;-6.288;2023-04-23T02:12:57;4.30;;;3.42;;
74749;SDS011;63269;53.330;-6.288;2023-04-23T02:15:23;4.18;;;3.20;;
74749;SDS011;63269;53.330;-6.288;2023-04-23T02:17:48;4.68;;;3.45;;
74749;SDS011;63269;53.330;-6.288;2023-04-23T02:20:17;4.05;;;3.13;;
74749;SDS011;63269;53.330;-6.288;2023-04-23T02:22:44;5.60;;;3.13;;
74749;SDS011;63269;53.330;-6.288;2023-04-23T02:25:10;3.80;;;3.03;;
74749;SDS011;63269;53.330;-6.288;2023-04-23T02:27:39;4.93;;;3.17;;
74749;SDS011;63269;53.330;-6.288;2023-04-23T02:30:05;5.47;;;2.42;;
74749;SDS011;63269;53.330;-6.288;2023-04-23T02:32:32;2.83;;;2.35;;
74749;SDS011;63269;53.330;-6.288;2023-04-23T02:34:58;3.80;;;2.60;;
74749;SDS011;63269;53.330;-6.288;2023-04-23T02:37:25;2.85;;;2.35;;
74749;SDS011;63269;53.330;-6.288;2023-04-23T02:39:51;2.95;;;2.10;;
74749;SDS011;63269;53.330;-6.288;2023-04-23T02:42:16;3.38;;;2.38;;
74749;SDS011;63269;53.330;-6.288;2023-04-23T02:44:42;3.30;;;2.22;;
74749;SDS011;63269;53.330;-6.288;2023-04-23T02:47:07;2.45;;;1.83;;
74749;SDS011;63269;53.330;-6.288;2023-04-23T02:49:33;3.28;;;2.00;;
74749;SDS011;63269;53.330;-6.288;2023-04-23T02:51:58;3.03;;;2.20;;
74749;SDS011;63269;53.330;-6.288;2023-04-23T02:54:23;3.80;;;2.63;;
74749;SDS011;63269;53.330;-6.288;2023-04-23T02:56:49;2.47;;;1.77;;
74749;SDS011;63269;53.330;-6.288;2023-04-23T02:59:15;2.30;;;1.90;;
74749;SDS011;63269;53.330;-6.288;2023-04-23T03:01:40;3.17;;;1.95;;
74749;SDS011;63269;53.330;-6.288;2023-04-23T03:04:06;2.60;;;1.50;;
74749;SDS011;63269;53.330;-6.288;2023-04-23T03:06:32;1.92;;;1.48;;
74749;SDS011;63269;53.330;-6.288;2023-04-23T03:08:59;1.95;;;1.50;;
74749;SDS011;63269;53.330;-6.288;2023-04-23T03:11:25;1.92;;;1.73;;
74749;SDS011;63269;53.330;-6.288;2023-04-23T03:13:50;2.33;;;1.75;;
74749;SDS011;63269;53.330;-6.288;2023-04-23T03:16:16;2.03;;;1.50;;
74749;SDS011;63269;53.330;-6.288;2023-04-23T03:18:41;1.95;;;1.48;;
74749;SDS011;63269;53.330;-6.288;2023-04-23T03:21:06;1.88;;;1.67;;
74749;SDS011;63269;53.330;-6.288;2023-04-23T03:23:32;1.85;;;1.60;;
74749;SDS011;63269;53.330;-6.288;2023-04-23T03:25:57;1.38;;;1.15;;
74749;SDS011;63269;53.330;-6.288;2023-04-23T03:28:23;1.92;;;1.30;;
74749;SDS011;63269;53.330;-6.288;2023-04-23T03:30:48;2.65;;;1.77;;
74749;SDS011;63269;53.330;-6.288;2023-04-23T03:33:14;1.30;;;1.20;;
74749;SDS011;63269;53.330;-6.288;2023-04-23T03:35:39;1.67;;;1.17;;
74749;SDS011;63269;53.330;-6.288;2023-04-23T03:38:05;1.40;;;1.10;;
74749;SDS011;63269;53.330;-6.288;2023-04-23T03:40:30;1.80;;;1.40;;
74749;SDS011;63269;53.330;-6.288;2023-04-23T03:42:55;2.33;;;1.52;;
74749;SDS011;63269;53.330;-6.288;2023-04-23T03:45:22;2.13;;;1.42;;
74749;SDS011;63269;53.330;-6.288;2023-04-23T03:47:47;1.70;;;1.10;;
74749;SDS011;63269;53.330;-6.288;2023-04-23T03:50:12;1.20;;;1.10;;
74749;SDS011;63269;53.330;-6.288;2023-04-23T03:52:38;2.97;;;1.50;;
74749;SDS011;63269;53.330;-6.288;2023-04-23T03:55:04;1.55;;;0.98;;
74749;SDS011;63269;53.330;-6.288;2023-04-23T03:57:30;2.05;;;1.27;;
74749;SDS011;63269;53.330;-6.288;2023-04-23T03:59:55;1.85;;;1.17;;
74749;SDS011;63269;53.330;-6.288;2023-04-23T04:02:21;1.55;;;1.20;;
74749;SDS011;63269;53.330;-6.288;2023-04-23T04:04:46;1.40;;;1.10;;
74749;SDS011;63269;53.330;-6.288;2023-04-23T04:07:13;0.93;;;0.80;;
74749;SDS011;63269;53.330;-6.288;2023-04-23T04:09:39;1.83;;;1.20;;
74749;SDS011;63269;53.330;-6.288;2023-04-23T04:12:05;0.93;;;0.80;;
74749;SDS011;63269;53.330;-6.288;2023-04-23T04:14:31;1.60;;;1.00;;
74749;SDS011;63269;53.330;-6.288;2023-04-23T04:16:57;1.75;;;1.42;;
74749;SDS011;63269;53.330;-6.288;2023-04-23T04:19:22;1.27;;;1.10;;
74749;SDS011;63269;53.330;-6.288;2023-04-23T04:21:48;1.90;;;1.10;;
74749;SDS011;63269;53.330;-6.288;2023-04-23T04:24:13;1.23;;;0.93;;
74749;SDS011;63269;53.330;-6.288;2023-04-23T04:26:39;1.40;;;1.05;;
74749;SDS011;63269;53.330;-6.288;2023-04-23T04:29:05;1.35;;;0.90;;
74749;SDS011;63269;53.330;-6.288;2023-04-23T04:31:30;1.55;;;1.10;;
74749;SDS011;63269;53.330;-6.288;2023-04-23T04:33:56;1.10;;;0.80;;
74749;SDS011;63269;53.330;-6.288;2023-04-23T04:36:22;1.20;;;0.77;;
74749;SDS011;63269;53.330;-6.288;2023-04-23T04:38:52;1.92;;;1.00;;
74749;SDS011;63269;53.330;-6.288;2023-04-23T04:41:20;1.17;;;0.85;;
74749;SDS011;63269;53.330;-6.288;2023-04-23T04:43:46;0.90;;;0.73;;
74749;SDS011;63269;53.330;-6.288;2023-04-23T04:46:12;1.40;;;1.08;;
74749;SDS011;63269;53.330;-6.288;2023-04-23T04:48:39;1.48;;;1.00;;
74749;SDS011;63269;53.330;-6.288;2023-04-23T04:51:05;1.25;;;0.80;;
74749;SDS011;63269;53.330;-6.288;2023-04-23T04:53:31;1.10;;;0.90;;
74749;SDS011;63269;53.330;-6.288;2023-04-23T04:55:56;1.73;;;1.08;;
74749;SDS011;63269;53.330;-6.288;2023-04-23T04:58:22;1.38;;;1.00;;
74749;SDS011;63269;53.330;-6.288;2023-04-23T05:00:47;1.20;;;0.77;;
74749;SDS011;63269;53.330;-6.288;2023-04-23T05:03:16;1.00;;;0.90;;
74749;SDS011;63269;53.330;-6.288;2023-04-23T05:05:42;0.98;;;0.80;;
74749;SDS011;63269;53.330;-6.288;2023-04-23T05:08:09;1.27;;;0.95;;
74749;SDS011;63269;53.330;-6.288;2023-04-23T05:10:35;1.60;;;1.00;;
74749;SDS011;63269;53.330;-6.288;2023-04-23T05:13:00;0.80;;;0.70;;
74749;SDS011;63269;53.330;-6.288;2023-04-23T05:15:26;1.48;;;0.70;;
74749;SDS011;63269;53.330;-6.288;2023-04-23T05:17:52;0.98;;;0.82;;
74749;SDS011;63269;53.330;-6.288;2023-04-23T05:20:18;1.90;;;1.10;;
74749;SDS011;63269;53.330;-6.288;2023-04-23T05:22:44;1.90;;;1.02;;
74749;SDS011;63269;53.330;-6.288;2023-04-23T05:25:10;1.48;;;0.70;;
74749;SDS011;63269;53.330;-6.288;2023-04-23T05:27:36;1.67;;;1.25;;
74749;SDS011;63269;53.330;-6.288;2023-04-23T05:30:02;1.20;;;0.80;;
74749;SDS011;63269;53.330;-6.288;2023-04-23T05:32:30;0.80;;;0.80;;
74749;SDS011;63269;53.330;-6.288;2023-04-23T05:34:55;1.25;;;1.00;;
74749;SDS011;63269;53.330;-6.288;2023-04-23T05:37:21;1.10;;;0.80;;
74749;SDS011;63269;53.330;-6.288;2023-04-23T05:39:46;2.58;;;1.05;;
74749;SDS011;63269;53.330;-6.288;2023-04-23T05:42:12;1.65;;;1.02;;
74749;SDS011;63269;53.330;-6.288;2023-04-23T05:44:37;1.70;;;1.20;;
74749;SDS011;63269;53.330;-6.288;2023-04-23T05:47:03;1.33;;;1.15;;
74749;SDS011;63269;53.330;-6.288;2023-04-23T05:49:28;1.67;;;1.40;;
74749;SDS011;63269;53.330;-6.288;2023-04-23T05:51:54;2.15;;;1.20;;
74749;SDS011;63269;53.330;-6.288;2023-04-23T05:54:20;1.40;;;1.25;;
74749;SDS011;63269;53.330;-6.288;2023-04-23T05:56:45;1.42;;;1.00;;
74749;SDS011;63269;53.330;-6.288;2023-04-23T05:59:11;2.17;;;1.58;;
74749;SDS011;63269;53.330;-6.288;2023-04-23T06:01:36;1.20;;;1.10;;
74749;SDS011;63269;53.330;-6.288;2023-04-23T06:04:02;1.60;;;1.40;;
74749;SDS011;63269;53.330;-6.288;2023-04-23T06:06:28;2.42;;;1.25;;
74749;SDS011;63269;53.330;-6.288;2023-04-23T06:08:53;1.75;;;1.38;;
74749;SDS011;63269;53.330;-6.288;2023-04-23T06:11:18;2.20;;;1.95;;
74749;SDS011;63269;53.330;-6.288;2023-04-23T06:13:45;1.45;;;1.30;;
74749;SDS011;63269;53.330;-6.288;2023-04-23T06:16:11;2.03;;;1.45;;
74749;SDS011;63269;53.330;-6.288;2023-04-23T06:18:36;3.03;;;1.77;;
74749;SDS011;63269;53.330;-6.288;2023-04-23T06:21:03;1.60;;;1.40;;
74749;SDS011;63269;53.330;-6.288;2023-04-23T06:23:30;1.73;;;1.63;;
74749;SDS011;63269;53.330;-6.288;2023-04-23T06:25:56;1.90;;;1.70;;
74749;SDS011;63269;53.330;-6.288;2023-04-23T06:28:21;2.25;;;1.88;;
74749;SDS011;63269;53.330;-6.288;2023-04-23T06:30:47;2.25;;;1.88;;
74749;SDS011;63269;53.330;-6.288;2023-04-23T06:33:12;2.10;;;1.80;;
74749;SDS011;63269;53.330;-6.288;2023-04-23T06:35:38;1.67;;;1.42;;
74749;SDS011;63269;53.330;-6.288;2023-04-23T06:38:03;2.30;;;2.10;;
74749;SDS011;63269;53.330;-6.288;2023-04-23T06:40:29;1.60;;;1.50;;
74749;SDS011;63269;53.330;-6.288;2023-04-23T06:42:54;1.65;;;1.55;;
74749;SDS011;63269;53.330;-6.288;2023-04-23T06:45:20;2.17;;;1.73;;
74749;SDS011;63269;53.330;-6.288;2023-04-23T06:47:45;2.10;;;1.75;;
74749;SDS011;63269;53.330;-6.288;2023-04-23T06:50:13;2.00;;;1.58;;
74749;SDS011;63269;53.330;-6.288;2023-04-23T06:52:38;2.55;;;1.80;;
74749;SDS011;63269;53.330;-6.288;2023-04-23T06:55:04;2.60;;;2.17;;
74749;SDS011;63269;53.330;-6.288;2023-04-23T06:57:30;2.75;;;2.10;;
74749;SDS011;63269;53.330;-6.288;2023-04-23T06:59:56;3.00;;;2.22;;
74749;SDS011;63269;53.330;-6.288;2023-04-23T07:02:21;2.92;;;2.35;;
74749;SDS011;63269;53.330;-6.288;2023-04-23T07:04:47;2.90;;;1.92;;
74749;SDS011;63269;53.330;-6.288;2023-04-23T07:07:12;2.55;;;1.92;;
74749;SDS011;63269;53.330;-6.288;2023-04-23T07:09:37;3.83;;;2.67;;
74749;SDS011;63269;53.330;-6.288;2023-04-23T07:12:03;2.92;;;2.60;;
74749;SDS011;63269;53.330;-6.288;2023-04-23T07:14:29;4.30;;;2.80;;
74749;SDS011;63269;53.330;-6.288;2023-04-23T07:16:54;2.53;;;2.20;;
74749;SDS011;63269;53.330;-6.288;2023-04-23T07:19:20;2.45;;;1.70;;
74749;SDS011;63269;53.330;-6.288;2023-04-23T07:21:45;2.88;;;1.45;;
74749;SDS011;63269;53.330;-6.288;2023-04-23T07:24:10;2.30;;;1.70;;
74749;SDS011;63269;53.330;-6.288;2023-04-23T07:26:36;2.22;;;1.92;;
74749;SDS011;63269;53.330;-6.288;2023-04-23T07:29:02;2.40;;;1.65;;
74749;SDS011;63269;53.330;-6.288;2023-04-23T07:31:28;1.98;;;1.73;;
74749;SDS011;63269;53.330;-6.288;2023-04-23T07:33:54;2.30;;;1.70;;
74749;SDS011;63269;53.330;-6.288;2023-04-23T07:36:20;2.58;;;1.80;;
74749;SDS011;63269;53.330;-6.288;2023-04-23T07:38:46;2.33;;;1.60;;
74749;SDS011;63269;53.330;-6.288;2023-04-23T07:41:11;2.00;;;1.40;;
74749;SDS011;63269;53.330;-6.288;2023-04-23T07:43:37;2.40;;;1.80;;
74749;SDS011;63269;53.330;-6.288;2023-04-23T07:46:05;2.47;;;1.80;;
74749;SDS011;63269;53.330;-6.288;2023-04-23T07:48:33;2.37;;;1.90;;
74749;SDS011;63269;53.330;-6.288;2023-04-23T07:50:59;2.95;;;1.70;;
74749;SDS011;63269;53.330;-6.288;2023-04-23T07:53:25;2.30;;;1.73;;
74749;SDS011;63269;53.330;-6.288;2023-04-23T07:55:52;2.15;;;1.63;;
74749;SDS011;63269;53.330;-6.288;2023-04-23T07:58:19;2.33;;;1.90;;
74749;SDS011;63269;53.330;-6.288;2023-04-23T08:00:45;2.33;;;1.88;;
74749;SDS011;63269;53.330;-6.288;2023-04-23T08:03:10;3.80;;;1.85;;
74749;SDS011;63269;53.330;-6.288;2023-04-23T08:05:36;2.85;;;1.85;;
74749;SDS011;63269;53.330;-6.288;2023-04-23T08:08:03;2.10;;;1.38;;
74749;SDS011;63269;53.330;-6.288;2023-04-23T08:10:28;2.13;;;1.58;;
74749;SDS011;63269;53.330;-6.288;2023-04-23T08:12:54;2.53;;;1.67;;
74749;SDS011;63269;53.330;-6.288;2023-04-23T08:15:19;1.98;;;1.65;;
74749;SDS011;63269;53.330;-6.288;2023-04-23T08:17:45;2.53;;;1.70;;
74749;SDS011;63269;53.330;-6.288;2023-04-23T08:20:10;2.88;;;1.98;;
74749;SDS011;63269;53.330;-6.288;2023-04-23T08:22:36;3.30;;;1.67;;
74749;SDS011;63269;53.330;-6.288;2023-04-23T08:25:01;1.73;;;1.42;;
74749;SDS011;63269;53.330;-6.288;2023-04-23T08:27:27;2.92;;;1.80;;
74749;SDS011;63269;53.330;-6.288;2023-04-23T08:29:52;2.60;;;1.70;;
74749;SDS011;63269;53.330;-6.288;2023-04-23T08:32:17;2.10;;;1.58;;
74749;SDS011;63269;53.330;-6.288;2023-04-23T08:34:43;1.42;;;1.13;;
74749;SDS011;63269;53.330;-6.288;2023-04-23T08:37:08;1.98;;;1.52;;
74749;SDS011;63269;53.330;-6.288;2023-04-23T08:39:35;3.60;;;1.40;;
74749;SDS011;63269;53.330;-6.288;2023-04-23T08:42:03;2.83;;;1.20;;
74749;SDS011;63269;53.330;-6.288;2023-04-23T08:44:35;1.80;;;1.38;;
74749;SDS011;63269;53.330;-6.288;2023-04-23T08:47:04;3.07;;;1.50;;
74749;SDS011;63269;53.330;-6.288;2023-04-23T08:49:32;1.95;;;1.40;;
74749;SDS011;63269;53.330;-6.288;2023-04-23T08:51:59;3.28;;;1.52;;
74749;SDS011;63269;53.330;-6.288;2023-04-23T08:54:34;2.78;;;1.60;;
74749;SDS011;63269;53.330;-6.288;2023-04-23T08:57:04;2.72;;;1.48;;
74749;SDS011;63269;53.330;-6.288;2023-04-23T08:59:30;2.85;;;1.52;;
74749;SDS011;63269;53.330;-6.288;2023-04-23T09:01:58;2.85;;;1.30;;
74749;SDS011;63269;53.330;-6.288;2023-04-23T09:04:25;1.77;;;1.30;;
74749;SDS011;63269;53.330;-6.288;2023-04-23T09:06:51;1.98;;;1.58;;
74749;SDS011;63269;53.330;-6.288;2023-04-23T09:09:17;2.70;;;1.70;;
74749;SDS011;63269;53.330;-6.288;2023-04-23T09:11:47;2.42;;;1.35;;
74749;SDS011;63269;53.330;-6.288;2023-04-23T09:14:13;3.80;;;1.45;;
74749;SDS011;63269;53.330;-6.288;2023-04-23T09:16:38;1.75;;;1.60;;
74749;SDS011;63269;53.330;-6.288;2023-04-23T09:19:07;1.73;;;1.38;;
74749;SDS011;63269;53.330;-6.288;2023-04-23T09:21:35;2.50;;;1.52;;
74749;SDS011;63269;53.330;-6.288;2023-04-23T09:24:05;1.98;;;1.20;;
74749;SDS011;63269;53.330;-6.288;2023-04-23T09:26:35;2.22;;;1.23;;
74749;SDS011;63269;53.330;-6.288;2023-04-23T09:29:12;3.63;;;1.60;;
74749;SDS011;63269;53.330;-6.288;2023-04-23T09:31:43;1.67;;;1.52;;
74749;SDS011;63269;53.330;-6.288;2023-04-23T09:34:19;2.35;;;1.70;;
74749;SDS011;63269;53.330;-6.288;2023-04-23T09:36:50;7.25;;;2.10;;
74749;SDS011;63269;53.330;-6.288;2023-04-23T09:39:25;4.18;;;2.30;;
74749;SDS011;63269;53.330;-6.288;2023-04-23T09:41:51;8.68;;;2.30;;
74749;SDS011;63269;53.330;-6.288;2023-04-23T09:44:18;5.10;;;2.15;;
74749;SDS011;63269;53.330;-6.288;2023-04-23T09:46:50;3.70;;;1.90;;
74749;SDS011;63269;53.330;-6.288;2023-04-23T09:49:16;8.23;;;1.90;;
74749;SDS011;63269;53.330;-6.288;2023-04-23T09:51:42;4.38;;;2.20;;
74749;SDS011;63269;53.330;-6.288;2023-04-23T09:54:12;5.13;;;2.08;;
74749;SDS011;63269;53.330;-6.288;2023-04-23T09:56:49;4.05;;;1.90;;
74749;SDS011;63269;53.330;-6.288;2023-04-23T09:59:24;3.28;;;1.80;;
74749;SDS011;63269;53.330;-6.288;2023-04-23T10:01:53;5.70;;;2.45;;
74749;SDS011;63269;53.330;-6.288;2023-04-23T10:04:20;8.48;;;2.70;;
74749;SDS011;63269;53.330;-6.288;2023-04-23T10:06:55;4.30;;;2.33;;
74749;SDS011;63269;53.330;-6.288;2023-04-23T10:09:23;10.80;;;2.72;;
74749;SDS011;63269;53.330;-6.288;2023-04-23T10:11:53;6.55;;;2.53;;
74749;SDS011;63269;53.330;-6.288;2023-04-23T10:14:20;8.60;;;2.63;;
74749;SDS011;63269;53.330;-6.288;2023-04-23T10:16:49;6.32;;;3.20;;
74749;SDS011;63269;53.330;-6.288;2023-04-23T10:19:16;11.68;;;2.30;;
74749;SDS011;63269;53.330;-6.288;2023-04-23T10:21:47;3.45;;;2.40;;
74749;SDS011;63269;53.330;-6.288;2023-04-23T10:24:14;2.90;;;2.42;;
74749;SDS011;63269;53.330;-6.288;2023-04-23T10:26:44;3.67;;;2.80;;
74749;SDS011;63269;53.330;-6.288;2023-04-23T10:29:12;11.43;;;2.90;;
74749;SDS011;63269;53.330;-6.288;2023-04-23T10:31:40;5.70;;;3.42;;
74749;SDS011;63269;53.330;-6.288;2023-04-23T10:34:06;4.97;;;3.05;;
74749;SDS011;63269;53.330;-6.288;2023-04-23T10:36:34;6.13;;;2.70;;
74749;SDS011;63269;53.330;-6.288;2023-04-23T10:39:01;3.88;;;2.95;;
74749;SDS011;63269;53.330;-6.288;2023-04-23T10:41:35;4.22;;;2.65;;
74749;SDS011;63269;53.330;-6.288;2023-04-23T10:44:05;4.00;;;2.92;;
74749;SDS011;63269;53.330;-6.288;2023-04-23T10:46:31;3.63;;;2.60;;
74749;SDS011;63269;53.330;-6.288;2023-04-23T10:49:13;3.40;;;2.53;;
74749;SDS011;63269;53.330;-6.288;2023-04-23T10:51:40;3.85;;;2.40;;
74749;SDS011;63269;53.330;-6.288;2023-04-23T10:54:09;3.60;;;2.30;;
74749;SDS011;63269;53.330;-6.288;2023-04-23T10:56:38;6.05;;;2.88;;
74749;SDS011;63269;53.330;-6.288;2023-04-23T10:59:16;5.03;;;2.50;;
74749;SDS011;63269;53.330;-6.288;2023-04-23T11:01:45;6.25;;;2.28;;
74749;SDS011;63269;53.330;-6.288;2023-04-23T11:04:23;11.03;;;2.60;;
74749;SDS011;63269;53.330;-6.288;2023-04-23T11:07:14;5.68;;;2.50;;
74749;SDS011;63269;53.330;-6.288;2023-04-23T11:09:39;3.65;;;2.42;;
74749;SDS011;63269;53.330;-6.288;2023-04-23T11:12:10;6.40;;;2.20;;
74749;SDS011;63269;53.330;-6.288;2023-04-23T11:17:10;2.38;;;1.90;;
74749;SDS011;63269;53.330;-6.288;2023-04-23T11:19:37;3.33;;;2.17;;
74749;SDS011;63269;53.330;-6.288;2023-04-23T11:22:13;5.05;;;2.80;;
74749;SDS011;63269;53.330;-6.288;2023-04-23T11:24:44;3.28;;;1.90;;
74749;SDS011;63269;53.330;-6.288;2023-04-23T11:27:12;3.55;;;2.03;;
74749;SDS011;63269;53.330;-6.288;2023-04-23T11:29:39;2.35;;;1.75;;
74749;SDS011;63269;53.330;-6.288;2023-04-23T11:32:05;3.45;;;1.92;;
74749;SDS011;63269;53.330;-6.288;2023-04-23T11:34:44;2.60;;;1.77;;
74749;SDS011;63269;53.330;-6.288;2023-04-23T11:37:11;3.03;;;2.10;;
74749;SDS011;63269;53.330;-6.288;2023-04-23T11:39:38;2.85;;;1.77;;
74749;SDS011;63269;53.330;-6.288;2023-04-23T11:42:14;2.83;;;1.75;;
74749;SDS011;63269;53.330;-6.288;2023-04-23T11:44:41;6.72;;;2.38;;
74749;SDS011;63269;53.330;-6.288;2023-04-23T11:47:08;3.63;;;2.00;;
74749;SDS011;63269;53.330;-6.288;2023-04-23T11:49:35;6.35;;;2.20;;
74749;SDS011;63269;53.330;-6.288;2023-04-23T11:52:02;2.17;;;1.92;;
74749;SDS011;63269;53.330;-6.288;2023-04-23T11:54:28;3.10;;;1.70;;
74749;SDS011;63269;53.330;-6.288;2023-04-23T11:56:54;1.90;;;1.60;;
74749;SDS011;63269;53.330;-6.288;2023-04-23T11:59:20;4.63;;;1.83;;
74749;SDS011;63269;53.330;-6.288;2023-04-23T12:01:51;4.07;;;1.73;;
74749;SDS011;63269;53.330;-6.288;2023-04-23T12:04:22;2.20;;;1.40;;
74749;SDS011;63269;53.330;-6.288;2023-04-23T12:06:52;1.80;;;1.58;;
74749;SDS011;63269;53.330;-6.288;2023-04-23T12:09:19;2.40;;;1.58;;
74749;SDS011;63269;53.330;-6.288;2023-04-23T12:11:48;2.58;;;1.50;;
74749;SDS011;63269;53.330;-6.288;2023-04-23T12:14:18;2.30;;;1.42;;
74749;SDS011;63269;53.330;-6.288;2023-04-23T12:16:46;2.75;;;1.73;;
74749;SDS011;63269;53.330;-6.288;2023-04-23T12:19:20;3.55;;;1.98;;
74749;SDS011;63269;53.330;-6.288;2023-04-23T12:21:53;1.83;;;1.70;;
74749;SDS011;63269;53.330;-6.288;2023-04-23T12:24:25;2.20;;;1.58;;
74749;SDS011;63269;53.330;-6.288;2023-04-23T12:26:52;1.85;;;1.60;;
74749;SDS011;63269;53.330;-6.288;2023-04-23T12:29:20;2.53;;;1.50;;
74749;SDS011;63269;53.330;-6.288;2023-04-23T12:31:47;2.00;;;1.52;;
74749;SDS011;63269;53.330;-6.288;2023-04-23T12:34:13;2.78;;;1.63;;
74749;SDS011;63269;53.330;-6.288;2023-04-23T12:36:43;1.83;;;1.67;;
74749;SDS011;63269;53.330;-6.288;2023-04-23T12:39:32;2.80;;;1.42;;
74749;SDS011;63269;53.330;-6.288;2023-04-23T12:44:25;2.13;;;1.55;;
74749;SDS011;63269;53.330;-6.288;2023-04-23T12:46:55;2.13;;;1.60;;
74749;SDS011;63269;53.330;-6.288;2023-04-23T12:49:21;2.60;;;1.42;;
74749;SDS011;63269;53.330;-6.288;2023-04-23T12:51:47;2.05;;;1.50;;
74749;SDS011;63269;53.330;-6.288;2023-04-23T12:54:12;2.55;;;1.70;;
74749;SDS011;63269;53.330;-6.288;2023-04-23T12:56:38;1.90;;;1.65;;
74749;SDS011;63269;53.330;-6.288;2023-04-23T12:59:03;2.15;;;1.73;;
74749;SDS011;63269;53.330;-6.288;2023-04-23T13:01:29;1.55;;;1.33;;
74749;SDS011;63269;53.330;-6.288;2023-04-23T13:03:56;1.67;;;1.30;;
74749;SDS011;63269;53.330;-6.288;2023-04-23T13:06:21;2.08;;;1.67;;
74749;SDS011;63269;53.330;-6.288;2023-04-23T13:08:47;2.40;;;1.50;;
74749;SDS011;63269;53.330;-6.288;2023-04-23T13:11:12;1.92;;;1.60;;
74749;SDS011;63269;53.330;-6.288;2023-04-23T13:13:37;2.85;;;1.48;;
74749;SDS011;63269;53.330;-6.288;2023-04-23T13:16:03;2.33;;;1.88;;
74749;SDS011;63269;53.330;-6.288;2023-04-23T13:18:28;2.00;;;1.40;;
74749;SDS011;63269;53.330;-6.288;2023-04-23T13:20:54;2.00;;;1.80;;
74749;SDS011;63269;53.330;-6.288;2023-04-23T13:23:19;2.42;;;1.73;;
74749;SDS011;63269;53.330;-6.288;2023-04-23T13:25:45;1.98;;;1.40;;
74749;SDS011;63269;53.330;-6.288;2023-04-23T13:28:10;3.05;;;1.60;;
74749;SDS011;63269;53.330;-6.288;2023-04-23T13:30:35;1.88;;;1.60;;
74749;SDS011;63269;53.330;-6.288;2023-04-23T13:33:01;2.17;;;1.58;;
74749;SDS011;63269;53.330;-6.288;2023-04-23T13:35:26;2.13;;;1.73;;
74749;SDS011;63269;53.330;-6.288;2023-04-23T13:37:52;2.30;;;1.73;;
74749;SDS011;63269;53.330;-6.288;2023-04-23T13:40:17;2.17;;;1.30;;
74749;SDS011;63269;53.330;-6.288;2023-04-23T13:42:43;2.15;;;1.58;;
74749;SDS011;63269;53.330;-6.288;2023-04-23T13:45:09;2.30;;;2.08;;
74749;SDS011;63269;53.330;-6.288;2023-04-23T13:47:34;1.90;;;1.48;;
74749;SDS011;63269;53.330;-6.288;2023-04-23T13:50:00;1.85;;;1.60;;
74749;SDS011;63269;53.330;-6.288;2023-04-23T13:52:29;1.95;;;1.65;;
74749;SDS011;63269;53.330;-6.288;2023-04-23T13:54:55;2.15;;;1.50;;
74749;SDS011;63269;53.330;-6.288;2023-04-23T13:57:21;2.47;;;1.70;;
74749;SDS011;63269;53.330;-6.288;2023-04-23T13:59:47;2.08;;;1.80;;
74749;SDS011;63269;53.330;-6.288;2023-04-23T14:02:13;2.33;;;1.75;;
74749;SDS011;63269;53.330;-6.288;2023-04-23T14:04:39;2.85;;;1.45;;
74749;SDS011;63269;53.330;-6.288;2023-04-23T14:07:04;3.10;;;1.98;;
74749;SDS011;63269;53.330;-6.288;2023-04-23T14:09:30;3.28;;;1.67;;
74749;SDS011;63269;53.330;-6.288;2023-04-23T14:11:55;2.00;;;1.60;;
74749;SDS011;63269;53.330;-6.288;2023-04-23T14:14:20;2.28;;;1.60;;
74749;SDS011;63269;53.330;-6.288;2023-04-23T14:16:46;2.33;;;1.50;;
74749;SDS011;63269;53.330;-6.288;2023-04-23T14:19:11;2.33;;;1.58;;
74749;SDS011;63269;53.330;-6.288;2023-04-23T14:21:37;2.80;;;1.38;;
74749;SDS011;63269;53.330;-6.288;2023-04-23T14:24:07;3.25;;;1.63;;
74749;SDS011;63269;53.330;-6.288;2023-04-23T14:26:34;2.10;;;1.35;;
74749;SDS011;63269;53.330;-6.288;2023-04-23T14:29:08;1.88;;;1.45;;
74749;SDS011;63269;53.330;-6.288;2023-04-23T14:31:35;1.83;;;1.67;;
74749;SDS011;63269;53.330;-6.288;2023-04-23T14:34:02;2.90;;;1.67;;
74749;SDS011;63269;53.330;-6.288;2023-04-23T14:36:29;1.85;;;1.48;;